Time;durP1;ratioP1;P1;durP2;ratioP2;P2;SDS_P1;SDS_P2;PMS_P1;PMS_P2;Temp;Humidity;BMP_temperature;BMP_pressure;BME280_temperature;BME280_humidity;BME280_pressure;Samples;Min_cycle;Max_cycle;Signal;HPM_P1;HPM_P2
2023/06/11 00:01:46;;;;;;;1.73;1.63;;;;;;;18.44;85.18;99267.78;5036401;28;20056;-63
2023/06/11 00:04:19;;;;;;;0.80;0.80;;;;;;;18.21;84.89;99238.59;5037144;28;20266;-62
2023/06/11 00:06:48;;;;;;;0.80;0.70;;;;;;;18.42;84.98;99274.78;5036339;28;20049;-62
2023/06/11 00:09:17;;;;;;;0.90;0.90;;;;;;;18.27;85.03;99249.53;5035737;28;20053;-62
2023/06/11 00:11:47;;;;;;;1.95;1.27;;;;;;;18.40;84.97;99280.91;5036151;28;20672;-63
2023/06/11 00:14:16;;;;;;;1.30;0.93;;;;;;;18.39;84.85;99285.22;5036505;28;20045;-62
2023/06/11 00:16:45;;;;;;;0.60;0.60;;;;;;;18.38;84.96;99273.19;5036034;28;20049;-63
2023/06/11 00:19:14;;;;;;;0.82;0.82;;;;;;;18.39;84.76;99280.06;5036051;28;20103;-62
2023/06/11 00:21:44;;;;;;;1.40;0.90;;;;;;;18.38;84.77;99283.53;5035973;28;20048;-62
2023/06/11 00:24:16;;;;;;;0.40;0.40;;;;;;;18.38;84.86;99288.69;5036412;28;20077;-62
2023/06/11 00:26:46;;;;;;;2.13;0.80;;;;;;;18.26;84.80;99272.84;5036122;28;20041;-63
2023/06/11 00:29:15;;;;;;;0.77;0.63;;;;;;;18.34;84.80;99281.97;5035773;28;20515;-63
2023/06/11 00:31:46;;;;;;;1.33;1.10;;;;;;;18.28;84.83;99287.38;5034674;28;20049;-63
2023/06/11 00:34:17;;;;;;;1.92;1.27;;;;;;;18.23;85.01;99284.13;5035695;28;20132;-62
2023/06/11 00:36:46;;;;;;;0.85;0.82;;;;;;;18.27;85.06;99274.50;5035591;28;20103;-62
2023/06/11 00:39:15;;;;;;;3.30;1.35;;;;;;;18.26;85.20;99276.25;5034750;28;20492;-62
2023/06/11 00:41:45;;;;;;;1.00;0.90;;;;;;;18.26;85.45;99276.25;5035679;28;20053;-62
2023/06/11 00:44:17;;;;;;;0.77;0.77;;;;;;;18.27;85.59;99280.53;5018180;28;20049;-62
2023/06/11 00:46:47;;;;;;;1.08;0.75;;;;;;;18.20;85.48;99279.06;5034325;28;20061;-62
2023/06/11 00:49:16;;;;;;;1.60;0.88;;;;;;;18.07;85.61;99252.00;5035499;28;20116;-62
2023/06/11 00:51:46;;;;;;;1.63;1.52;;;;;;;18.22;85.78;99282.44;5017984;28;20052;-62
2023/06/11 00:54:16;;;;;;;1.55;0.70;;;;;;;18.21;85.75;99280.75;5035459;28;20053;-62
2023/06/11 00:56:45;;;;;;;0.75;0.75;;;;;;;18.22;85.84;99277.28;5034379;28;20057;-62
2023/06/11 00:59:19;;;;;;;1.02;0.93;;;;;;;18.26;85.74;99278.81;5035150;28;20049;-62
2023/06/11 01:02:06;;;;;;;1.40;1.10;;;;;;;18.32;85.62;99281.19;5035535;28;20553;-62
2023/06/11 01:04:39;;;;;;;2.13;0.90;;;;;;;18.28;85.23;99277.06;5035202;28;20045;-62
2023/06/11 01:07:12;;;;;;;0.68;0.68;;;;;;;18.24;85.18;99266.88;5034007;28;20042;-63
2023/06/11 01:09:43;;;;;;;1.00;0.88;;;;;;;18.30;85.20;99274.41;5034968;28;20046;-62
2023/06/11 01:12:13;;;;;;;0.90;0.85;;;;;;;18.33;84.78;99275.09;5035039;28;20084;-63
2023/06/11 01:14:43;;;;;;;1.83;0.90;;;;;;;18.32;84.75;99277.75;5033822;28;20052;-63
2023/06/11 01:17:18;;;;;;;1.70;1.30;;;;;;;18.32;84.68;99276.03;5034044;28;20041;-63
2023/06/11 01:20:03;;;;;;;0.70;0.70;;;;;;;18.34;84.94;99271.63;5034850;28;20208;-62
2023/06/11 01:22:41;;;;;;;0.40;0.40;;;;;;;18.30;84.81;99277.84;5033090;28;20064;-63
2023/06/11 01:25:18;;;;;;;1.63;0.67;;;;;;;18.29;85.08;99277.88;5035456;28;20399;-63
2023/06/11 01:28:09;;;;;;;1.38;1.25;;;;;;;18.26;85.25;99284.00;5033578;28;20042;-62
2023/06/11 01:30:40;;;;;;;1.27;1.17;;;;;;;18.23;85.16;99273.81;5034944;28;20120;-63
2023/06/11 01:33:10;;;;;;;1.02;0.93;;;;;;;18.26;85.32;99278.81;5034709;28;20120;-63
2023/06/11 01:35:43;;;;;;;0.70;0.70;;;;;;;18.26;85.47;99273.66;5033434;28;20499;-63
2023/06/11 01:38:13;;;;;;;0.60;0.52;;;;;;;18.25;85.36;99276.31;5034508;28;20049;-63
2023/06/11 01:40:48;;;;;;;0.85;0.85;;;;;;;18.23;85.36;99268.63;5033507;28;20069;-62
2023/06/11 01:43:19;;;;;;;;;;;;;;;18.21;85.25;99267.00;5033981;28;20045;-63
2023/06/11 01:45:48;;;;;;;1.13;1.02;;;;;;;18.01;85.38;99252.25;5050126;28;19991;-63
2023/06/11 01:48:17;;;;;;;2.78;1.73;;;;;;;18.06;85.18;99245.19;5034298;28;20510;-62
2023/06/11 01:50:46;;;;;;;0.88;0.88;;;;;;;18.19;85.23;99269.63;5033060;28;20538;-62
2023/06/11 01:53:16;;;;;;;1.50;1.40;;;;;;;18.14;85.79;99268.97;5034239;28;20055;-62
2023/06/11 01:55:45;;;;;;;2.05;1.50;;;;;;;18.15;85.81;99270.66;5050148;28;20038;-62
2023/06/11 01:58:16;;;;;;;0.88;0.88;;;;;;;18.00;85.82;99255.72;5034449;28;20083;-62
2023/06/11 02:00:47;;;;;;;1.05;1.00;;;;;;;18.06;85.99;99273.59;5032923;28;20099;-62
2023/06/11 02:03:16;;;;;;;0.95;0.85;;;;;;;17.97;85.95;99255.88;5034035;28;20069;-62
2023/06/11 02:05:46;;;;;;;0.73;0.73;;;;;;;17.88;85.94;99251.03;5033171;28;20115;-62
2023/06/11 02:08:14;;;;;;;1.63;1.35;;;;;;;17.93;85.66;99264.59;5032789;28;20056;-62
2023/06/11 02:10:45;;;;;;;1.30;1.00;;;;;;;17.83;85.24;99243.44;5033769;28;20045;-62
2023/06/11 02:13:14;;;;;;;1.75;1.45;;;;;;;17.93;85.06;99264.59;5034235;28;20107;-62
2023/06/11 02:15:43;;;;;;;0.85;0.85;;;;;;;17.97;84.85;99276.53;5034156;28;20057;-63
2023/06/11 02:18:13;;;;;;;1.45;1.27;;;;;;;17.93;84.93;99270.63;5033857;28;20045;-62
2023/06/11 02:20:42;;;;;;;0.57;0.57;;;;;;;17.88;84.90;99282.84;5033261;28;20056;-63
2023/06/11 02:23:11;;;;;;;0.82;0.63;;;;;;;17.82;85.10;99282.25;5032888;28;20136;-62
2023/06/11 02:25:40;;;;;;;1.97;1.57;;;;;;;17.78;85.20;99278.09;5033806;28;20045;-62
2023/06/11 02:28:11;;;;;;;0.70;0.70;;;;;;;17.80;85.13;99278.88;5033820;28;20806;-62
2023/06/11 02:30:40;;;;;;;1.83;1.23;;;;;;;17.60;84.91;99252.94;5033704;28;20045;-62
2023/06/11 02:33:10;;;;;;;0.70;0.70;;;;;;;17.71;85.22;99279.19;5033469;28;20057;-63
2023/06/11 02:35:41;;;;;;;2.53;1.63;;;;;;;17.66;85.70;99283.69;5033931;28;20132;-62
2023/06/11 02:38:10;;;;;;;1.10;0.90;;;;;;;17.64;85.91;99280.31;5033630;28;20052;-62
2023/06/11 02:40:39;;;;;;;0.70;0.70;;;;;;;17.62;86.02;99279.53;5033857;28;20045;-63
2023/06/11 02:43:07;;;;;;;0.60;0.60;;;;;;;17.58;86.15;99272.78;5033731;28;20283;-62
2023/06/11 02:45:36;;;;;;;1.47;1.10;;;;;;;17.41;86.24;99253.56;5033535;28;20057;-62
2023/06/11 02:48:06;;;;;;;1.23;1.10;;;;;;;17.51;86.32;99276.47;5033508;28;20279;-62
2023/06/11 02:50:34;;;;;;;0.52;0.50;;;;;;;17.46;86.64;99278.34;5032277;28;20630;-62
2023/06/11 02:53:05;;;;;;;1.10;0.95;;;;;;;17.44;86.74;99276.66;5032267;28;20095;-62
2023/06/11 02:55:34;;;;;;;3.95;1.80;;;;;;;17.35;86.82;99273.56;5033503;28;20116;-62
2023/06/11 02:58:03;;;;;;;0.98;0.98;;;;;;;17.29;87.20;99272.06;5032538;28;20488;-63
2023/06/11 03:00:31;;;;;;;0.65;0.55;;;;;;;17.25;87.56;99280.78;5033702;28;20065;-62
2023/06/11 03:03:00;;;;;;;1.50;0.93;;;;;;;17.18;87.67;99268.97;5033428;28;20053;-63
2023/06/11 03:05:37;;;;;;;1.23;1.13;;;;;;;17.24;87.92;99286.00;5033419;28;20526;-62
2023/06/11 03:08:07;;;;;;;2.00;1.02;;;;;;;17.21;87.85;99284.34;5032355;28;20049;-62
2023/06/11 03:10:37;;;;;;;0.60;0.60;;;;;;;17.18;88.24;99289.59;5048924;28;20472;-62
2023/06/11 03:13:06;;;;;;;1.17;1.08;;;;;;;17.19;88.33;99286.16;5048750;28;20495;-62
2023/06/11 03:15:35;;;;;;;1.10;0.93;;;;;;;17.20;88.47;99287.00;5033193;28;20133;-62
2023/06/11 03:18:04;;;;;;;0.60;0.60;;;;;;;17.21;88.53;99294.66;5032070;28;20049;-62
2023/06/11 03:20:36;;;;;;;0.70;0.70;;;;;;;17.21;88.58;99299.84;5033534;28;20046;-62
2023/06/11 03:23:07;;;;;;;1.38;1.27;;;;;;;17.24;88.69;99299.72;5031953;28;20137;-62
2023/06/11 03:25:36;;;;;;;2.47;1.00;;;;;;;17.19;88.49;99286.16;5032534;28;20049;-62
2023/06/11 03:28:06;;;;;;;0.73;0.73;;;;;;;17.24;88.47;99289.41;5033416;28;20045;-62
2023/06/11 03:30:36;;;;;;;1.30;0.75;;;;;;;17.31;88.48;99301.22;5032157;28;20469;-62
2023/06/11 03:33:06;;;;;;;1.58;1.48;;;;;;;17.29;88.30;99303.00;5032923;28;20083;-62
2023/06/11 03:35:36;;;;;;;1.15;0.80;;;;;;;17.34;87.95;99305.44;5032906;28;20038;-62
2023/06/11 03:38:16;;;;;;;3.10;1.97;;;;;;;17.37;87.94;99308.72;5031903;28;20045;-62
2023/06/11 03:40:45;;;;;;;0.80;0.80;;;;;;;17.21;87.96;99276.63;5031956;28;20041;-62
2023/06/11 03:43:14;;;;;;;1.33;0.93;;;;;;;17.38;87.65;99307.84;5033046;28;20103;-62
2023/06/11 03:45:44;;;;;;;1.00;0.77;;;;;;;17.41;87.45;99305.16;5036393;28;20073;-62
2023/06/11 03:48:13;;;;;;;0.50;0.50;;;;;;;17.22;87.18;99275.75;5035732;28;20095;-62
2023/06/11 03:50:42;;;;;;;1.95;1.27;;;;;;;17.41;87.19;99318.06;5035580;28;20044;-62
2023/06/11 03:53:11;;;;;;;1.15;0.82;;;;;;;17.48;87.07;99315.25;5035692;28;20072;-62
2023/06/11 03:55:43;;;;;;;1.95;1.38;;;;;;;17.48;87.09;99317.84;5036383;28;20107;-63
2023/06/11 03:58:13;;;;;;;1.02;0.93;;;;;;;17.33;87.10;99299.41;5036690;28;20488;-63
2023/06/11 04:00:42;;;;;;;0.65;0.65;;;;;;;17.51;86.83;99325.50;5052040;28;20124;-62
2023/06/11 04:03:11;;;;;;;1.58;1.45;;;;;;;17.36;86.97;99291.59;5036636;28;20084;-62
2023/06/11 04:05:41;;;;;;;0.63;0.63;;;;;;;17.53;87.02;99310.81;5036237;28;20128;-62
2023/06/11 04:08:10;;;;;;;1.67;0.82;;;;;;;17.56;87.01;99310.72;5035408;28;20128;-62
2023/06/11 04:10:42;;;;;;;0.57;0.57;;;;;;;17.58;86.93;99325.25;5035149;28;20475;-62
2023/06/11 04:13:11;;;;;;;1.65;1.17;;;;;;;17.59;86.70;99315.78;5036520;28;20510;-62
2023/06/11 04:15:40;;;;;;;1.65;1.55;;;;;;;17.56;86.38;99310.72;5035011;28;20046;-63
2023/06/11 04:18:11;;;;;;;1.08;0.98;;;;;;;17.61;86.18;99319.16;5036325;28;20057;-63
2023/06/11 04:20:41;;;;;;;2.50;1.02;;;;;;;17.64;86.22;99311.28;5035057;28;20037;-62
2023/06/11 04:23:10;;;;;;;2.30;1.50;;;;;;;17.52;85.86;99296.22;5035077;28;20385;-63
2023/06/11 04:25:40;;;;;;;0.65;0.65;;;;;;;17.63;85.77;99317.34;5034674;28;20107;-63
2023/06/11 04:28:17;;;;;;;7.05;1.70;;;;;;;17.66;85.76;99314.69;5035097;28;20056;-62
2023/06/11 04:30:48;;;;;;;1.00;0.90;;;;;;;17.52;85.61;99289.34;5035752;28;20045;-63
2023/06/11 04:33:18;;;;;;;1.60;1.20;;;;;;;17.63;85.72;99301.88;5034484;28;20045;-63
2023/06/11 04:35:49;;;;;;;5.35;1.92;;;;;;;17.69;85.47;99317.13;5035758;28;20056;-63
2023/06/11 04:38:18;;;;;;;1.20;1.10;;;;;;;17.69;85.44;99327.44;5035950;28;20049;-63
2023/06/11 04:40:47;;;;;;;1.88;1.13;;;;;;;17.58;85.62;99298.59;5034744;28;20040;-63
2023/06/11 04:43:22;;;;;;;1.30;1.20;;;;;;;17.75;85.25;99320.34;5034684;28;20503;-63
2023/06/11 04:45:55;;;;;;;0.73;0.73;;;;;;;17.60;85.32;99296.81;5035610;28;20054;-63
2023/06/11 04:48:28;;;;;;;1.38;1.05;;;;;;;17.80;85.33;99320.19;5017763;28;20398;-63
2023/06/11 04:50:59;;;;;;;0.85;0.80;;;;;;;17.65;85.01;99287.16;5034251;28;20499;-63
2023/06/11 04:53:36;;;;;;;0.90;0.90;;;;;;;17.82;84.80;99308.06;5035731;28;20054;-63
2023/06/11 04:56:09;;;;;;;0.98;0.90;;;;;;;17.76;84.55;99287.63;5034584;28;20049;-63
2023/06/11 04:58:41;;;;;;;1.30;1.20;;;;;;;17.96;84.38;99321.31;5035329;28;20134;-63
2023/06/11 05:01:12;;;;;;;0.70;0.70;;;;;;;17.94;84.07;99315.38;5035576;28;20049;-63
2023/06/11 05:03:41;;;;;;;21.58;1.85;;;;;;;18.07;83.94;99329.50;5035546;28;20052;-63
2023/06/11 05:06:13;;;;;;;0.65;0.65;;;;;;;18.12;83.78;99326.75;5034308;28;20050;-63
2023/06/11 05:08:45;;;;;;;3.25;1.73;;;;;;;18.10;83.26;99324.22;5035117;28;20057;-62
2023/06/11 05:11:15;;;;;;;;;;;;;;;18.13;83.34;99329.28;5035670;28;20136;-63
2023/06/11 05:13:45;;;;;;;1.45;0.60;;;;;;;18.19;83.18;99323.06;5033891;28;19970;-63
2023/06/11 05:16:14;;;;;;;2.28;0.80;;;;;;;18.09;83.04;99296.72;5035094;28;20049;-63
2023/06/11 05:18:43;;;;;;;1.05;0.95;;;;;;;18.27;82.81;99321.88;5034953;28;20055;-63
2023/06/11 05:21:12;;;;;;;0.77;0.77;;;;;;;18.30;82.77;99320.91;5034018;28;20095;-63
2023/06/11 05:23:41;;;;;;;1.35;1.00;;;;;;;18.18;82.69;99296.38;5034067;28;20041;-63
2023/06/11 05:26:13;;;;;;;2.70;2.05;;;;;;;18.38;82.71;99324.88;5035088;28;20102;-63
2023/06/11 05:28:47;;;;;;;2.33;1.13;;;;;;;18.45;82.49;99321.16;5034811;28;20051;-63
2023/06/11 05:31:17;;;;;;;1.20;1.08;;;;;;;18.43;82.49;99312.63;5033767;28;20046;-63
2023/06/11 05:33:49;;;;;;;1.23;1.13;;;;;;;18.50;82.10;99321.84;5034583;28;20061;-63
2023/06/11 05:36:20;;;;;;;1.08;1.02;;;;;;;18.53;82.09;99324.31;5034613;28;20049;-63
2023/06/11 05:38:52;;;;;;;1.25;1.15;;;;;;;18.56;81.98;99323.38;5034612;28;20045;-63
2023/06/11 05:41:22;;;;;;;0.88;0.88;;;;;;;18.67;81.56;99337.56;5033497;28;20442;-63
2023/06/11 05:43:52;;;;;;;1.02;0.93;;;;;;;18.78;81.61;99344.06;5033594;28;20045;-63
2023/06/11 05:46:24;;;;;;;0.77;0.77;;;;;;;18.71;81.56;99333.94;5033836;28;20041;-63
2023/06/11 05:48:53;;;;;;;0.47;0.47;;;;;;;18.67;81.50;99316.88;5033427;28;20056;-63
2023/06/11 05:51:23;;;;;;;1.00;0.70;;;;;;;18.88;81.45;99340.22;5033179;28;20045;-63
2023/06/11 05:53:52;;;;;;;0.52;0.52;;;;;;;18.90;81.38;99340.97;5034363;28;20049;-63
2023/06/11 05:56:22;;;;;;;1.75;1.60;;;;;;;18.98;81.32;99347.53;5033152;28;20124;-63
2023/06/11 05:58:53;;;;;;;0.77;0.70;;;;;;;19.00;81.21;99350.06;5033268;28;20037;-63
2023/06/11 06:01:23;;;;;;;0.55;0.55;;;;;;;19.03;81.02;99355.09;5033295;28;20042;-63
2023/06/11 06:03:52;;;;;;;2.05;1.08;;;;;;;19.09;80.77;99354.88;5034091;28;20132;-63
2023/06/11 06:06:21;;;;;;;2.30;1.08;;;;;;;19.13;80.40;99356.41;5034477;28;20045;-63
2023/06/11 06:08:51;;;;;;;0.98;0.88;;;;;;;19.14;80.23;99350.34;5033823;28;20047;-63
2023/06/11 06:11:20;;;;;;;1.17;1.08;;;;;;;19.21;79.98;99367.31;5032468;28;20128;-63
2023/06/11 06:13:49;;;;;;;0.73;0.70;;;;;;;19.26;80.08;99360.19;5033701;28;20511;-64
2023/06/11 06:16:21;;;;;;;0.52;0.52;;;;;;;19.37;79.61;99360.63;5016732;28;20053;-64
2023/06/11 06:18:52;;;;;;;0.75;0.75;;;;;;;19.40;79.18;99368.25;5032852;28;20156;-63
2023/06/11 06:21:21;;;;;;;1.02;1.00;;;;;;;19.41;78.90;99357.03;5034135;28;20045;-63
2023/06/11 06:23:51;;;;;;;0.68;0.57;;;;;;;19.49;78.62;99354.94;5033130;28;20053;-63
2023/06/11 06:26:22;;;;;;;12.27;2.47;;;;;;;19.53;78.38;99350.47;5034466;28;20178;-63
2023/06/11 06:28:53;;;;;;;2.70;1.55;;;;;;;19.45;78.56;99337.84;5032875;28;20041;-63
2023/06/11 06:31:24;;;;;;;0.88;0.88;;;;;;;19.70;78.00;99360.97;5033961;28;20080;-63
2023/06/11 06:33:54;;;;;;;3.85;0.90;;;;;;;19.75;77.77;99370.19;5032158;28;20141;-63
2023/06/11 06:36:25;;;;;;;0.82;0.70;;;;;;;19.76;77.13;99371.91;5032638;28;20052;-63
2023/06/11 06:38:55;;;;;;;0.73;0.70;;;;;;;19.72;77.07;99347.06;5033641;28;20479;-63
2023/06/11 06:41:24;;;;;;;1.27;0.80;;;;;;;19.82;76.63;99353.50;5032856;28;20088;-64
2023/06/11 06:43:53;;;;;;;0.60;0.60;;;;;;;19.96;76.53;99366.69;5033802;28;20063;-64
2023/06/11 06:46:27;;;;;;;0.65;0.65;;;;;;;20.03;76.24;99370.69;5032518;28;20487;-63
2023/06/11 06:48:56;;;;;;;1.15;0.90;;;;;;;20.08;76.23;99369.66;5033027;28;20049;-64
2023/06/11 06:51:25;;;;;;;0.80;0.63;;;;;;;20.08;75.83;99360.94;5033710;28;20199;-64
2023/06/11 06:53:53;;;;;;;0.50;0.50;;;;;;;20.10;75.11;99370.44;5033405;28;20065;-63
2023/06/11 06:56:23;;;;;;;1.20;1.10;;;;;;;20.12;75.05;99372.03;5032569;28;20370;-63
2023/06/11 06:58:51;;;;;;;0.63;0.60;;;;;;;20.20;74.57;99374.28;5032912;28;20091;-63
2023/06/11 07:01:20;;;;;;;1.27;1.17;;;;;;;20.29;74.01;99368.72;5033316;28;20065;-63
2023/06/11 07:03:51;;;;;;;1.20;1.02;;;;;;;20.37;73.95;99351.91;5032551;28;20048;-64
2023/06/11 07:06:20;;;;;;;0.82;0.80;;;;;;;20.55;73.73;99370.97;5033540;28;20131;-63
2023/06/11 07:08:48;;;;;;;3.10;0.90;;;;;;;20.55;73.53;99371.81;5033865;28;20050;-63
2023/06/11 07:11:17;;;;;;;0.90;0.80;;;;;;;20.62;73.00;99372.38;5033433;28;20099;-64
2023/06/11 07:13:47;;;;;;;0.73;0.73;;;;;;;20.55;72.94;99350.22;5033723;28;20407;-64
2023/06/11 07:16:16;;;;;;;0.70;0.50;;;;;;;20.72;72.56;99381.41;5033514;28;20076;-63
2023/06/11 07:18:53;;;;;;;0.63;0.63;;;;;;;20.84;72.36;99380.84;5032607;28;20054;-64
2023/06/11 07:21:23;;;;;;;0.47;0.47;;;;;;;21.07;72.17;99383.19;5037270;28;20044;-65
2023/06/11 07:23:52;;;;;;;0.68;0.68;;;;;;;21.17;71.60;99384.44;5037010;28;20053;-65
2023/06/11 07:26:22;;;;;;;0.70;0.70;;;;;;;21.28;71.14;99381.34;5036234;28;20115;-64
2023/06/11 07:28:52;;;;;;;0.47;0.47;;;;;;;21.22;70.69;99377.28;5037247;28;20377;-64
2023/06/11 07:31:21;;;;;;;0.55;0.55;;;;;;;21.24;70.32;99390.16;5052285;28;20045;-64
2023/06/11 07:33:50;;;;;;;0.95;0.77;;;;;;;21.25;70.59;99364.16;5035789;28;20506;-64
2023/06/11 07:36:20;;;;;;;0.57;0.57;;;;;;;21.42;69.70;99380.63;5035729;28;20085;-64
2023/06/11 07:38:49;;;;;;;1.40;1.30;;;;;;;21.46;69.43;99393.41;5036918;28;20060;-64
2023/06/11 07:41:19;;;;;;;1.02;1.00;;;;;;;21.69;69.47;99389.66;5037262;28;20049;-64
2023/06/11 07:43:49;;;;;;;1.00;0.90;;;;;;;21.85;69.53;99380.19;5035513;28;20045;-64
2023/06/11 07:46:17;;;;;;;0.60;0.60;;;;;;;21.95;69.76;99381.41;5035424;28;20064;-63
2023/06/11 07:48:48;;;;;;;0.75;0.70;;;;;;;21.86;69.40;99368.84;5036989;28;20050;-64
2023/06/11 07:51:20;;;;;;;0.73;0.60;;;;;;;21.88;69.27;99382.63;5035470;28;20053;-64
2023/06/11 07:53:58;;;;;;;0.80;0.68;;;;;;;21.79;69.61;99388.25;5035690;28;20462;-63
2023/06/11 07:56:28;;;;;;;0.60;0.60;;;;;;;21.69;69.40;99385.28;5036510;28;20136;-64
2023/06/11 07:58:57;;;;;;;0.52;0.52;;;;;;;21.68;69.40;99390.56;5035500;28;20233;-63
2023/06/11 08:01:25;;;;;;;0.75;0.75;;;;;;;21.66;68.58;99389.81;5035198;28;20099;-63
2023/06/11 08:03:54;;;;;;;1.15;1.05;;;;;;;21.45;68.30;99362.31;5036830;28;20053;-64
2023/06/11 08:06:23;;;;;;;0.30;0.30;;;;;;;21.61;67.71;99397.00;5036292;28;20132;-63
2023/06/11 08:08:53;;;;;;;0.75;0.75;;;;;;;21.54;67.22;99393.88;5036118;28;20045;-64
2023/06/11 08:11:23;;;;;;;0.60;0.60;;;;;;;21.48;67.35;99401.94;5036170;28;20133;-64
2023/06/11 08:13:52;;;;;;;0.70;0.70;;;;;;;21.42;67.03;99406.59;5036289;28;20048;-64
2023/06/11 08:16:21;;;;;;;0.83;0.73;;;;;;;21.36;66.95;99407.75;5036148;28;20045;-64
2023/06/11 08:18:50;;;;;;;1.35;1.25;;;;;;;21.32;67.03;99414.84;5036337;28;20283;-64
2023/06/11 08:21:19;;;;;;;0.60;0.60;;;;;;;21.19;66.92;99390.38;5036270;28;20072;-64
2023/06/11 08:23:48;;;;;;;1.40;0.60;;;;;;;21.28;66.93;99410.72;5036252;28;20057;-65
2023/06/11 08:26:16;;;;;;;;;;;;;;;21.29;67.11;99407.22;5036311;28;20076;-64
2023/06/11 08:28:47;;;;;;;0.52;0.50;;;;;;;21.36;67.52;99403.41;5035953;28;20377;-63
2023/06/11 08:31:15;;;;;;;0.68;0.68;;;;;;;21.41;67.78;99407.50;5035989;28;20045;-63
2023/06/11 08:33:44;;;;;;;0.60;0.60;;;;;;;21.38;68.01;99402.50;5035500;28;20518;-64
2023/06/11 08:36:14;;;;;;;0.40;0.40;;;;;;;21.33;68.23;99408.72;5035744;28;20053;-63
2023/06/11 08:38:43;;;;;;;0.60;0.60;;;;;;;21.34;68.10;99410.44;5035966;28;20136;-64
2023/06/11 08:41:12;;;;;;;0.50;0.50;;;;;;;21.33;68.36;99415.72;5035978;28;20045;-63
2023/06/11 08:43:41;;;;;;;0.50;0.50;;;;;;;21.34;68.39;99415.63;5035863;28;20046;-65
2023/06/11 08:46:15;;;;;;;0.60;0.60;;;;;;;21.29;68.16;99412.41;5035568;28;20060;-64
2023/06/11 08:48:45;;;;;;;0.57;0.57;;;;;;;21.32;68.02;99417.44;5035766;28;20051;-64
2023/06/11 08:51:14;;;;;;;0.32;0.32;;;;;;;21.34;67.95;99415.63;5035443;28;20052;-64
2023/06/11 08:53:44;;;;;;;0.57;0.57;;;;;;;21.34;67.62;99415.63;5035645;28;20395;-64
2023/06/11 08:56:13;;;;;;;0.50;0.50;;;;;;;21.38;67.90;99411.94;5035310;28;20049;-64
2023/06/11 08:58:42;;;;;;;0.60;0.60;;;;;;;21.41;67.64;99415.31;5035354;28;20050;-64
2023/06/11 09:01:11;;;;;;;0.50;0.50;;;;;;;21.40;67.31;99403.25;5035205;28;20057;-64
2023/06/11 09:03:42;;;;;;;;;;;;;;;21.42;66.87;99417.00;5035939;28;20045;-64
2023/06/11 09:06:11;;;;;;;4.40;0.63;;;;;;;21.38;66.51;99406.75;5035166;28;20019;-64
2023/06/11 09:08:40;;;;;;;2.45;0.70;;;;;;;21.47;66.63;99415.03;5035399;28;20049;-63
2023/06/11 09:11:09;;;;;;;0.82;0.82;;;;;;;21.48;66.61;99412.34;5035075;28;20050;-64
2023/06/11 09:13:42;;;;;;;0.70;0.70;;;;;;;21.43;66.37;99403.94;5034959;28;20056;-64
2023/06/11 09:16:11;;;;;;;0.50;0.50;;;;;;;21.49;66.24;99413.19;5034979;28;20392;-64
2023/06/11 09:18:44;;;;;;;0.50;0.50;;;;;;;21.51;66.42;99407.00;5035202;28;20053;-64
2023/06/11 09:21:12;;;;;;;0.43;0.43;;;;;;;21.59;66.56;99414.41;5034917;28;20042;-63
2023/06/11 09:23:43;;;;;;;1.95;1.00;;;;;;;21.59;66.05;99410.06;5034900;28;20065;-63
2023/06/11 09:26:17;;;;;;;0.40;0.40;;;;;;;21.62;65.89;99409.88;5035041;28;20395;-63
2023/06/11 09:28:48;;;;;;;0.30;0.30;;;;;;;21.60;65.69;99406.53;5034783;28;20045;-64
2023/06/11 09:31:20;;;;;;;0.50;0.50;;;;;;;21.73;65.60;99411.97;5034467;28;20045;-65
2023/06/11 09:33:53;;;;;;;0.63;0.63;;;;;;;21.77;65.08;99413.47;5034918;28;20450;-64
2023/06/11 09:36:23;;;;;;;0.85;0.45;;;;;;;21.84;64.87;99417.44;5034949;28;20518;-64
2023/06/11 09:38:52;;;;;;;0.88;0.82;;;;;;;21.82;64.49;99408.88;5034641;28;20368;-64
2023/06/11 09:41:22;;;;;;;0.50;0.50;;;;;;;21.99;64.10;99420.16;5034357;28;20479;-64
2023/06/11 09:43:54;;;;;;;2.72;0.77;;;;;;;22.12;63.93;99420.38;5034860;28;20144;-64
2023/06/11 09:46:25;;;;;;;1.05;0.82;;;;;;;22.19;63.79;99420.88;5034445;28;20065;-64
2023/06/11 09:48:56;;;;;;;0.40;0.40;;;;;;;22.29;63.94;99417.69;5034606;28;20038;-64
2023/06/11 09:51:25;;;;;;;0.30;0.30;;;;;;;22.36;63.64;99411.25;5034610;28;20097;-63
2023/06/11 09:53:55;;;;;;;0.40;0.40;;;;;;;22.46;63.58;99420.25;5034317;28;20045;-64
2023/06/11 09:56:24;;;;;;;;;;;;;;;22.58;63.62;99419.59;5034945;28;20037;-64
2023/06/11 09:58:57;;;;;;;0.40;0.40;;;;;;;22.53;63.60;99390.38;5034378;28;20016;-64
2023/06/11 10:01:27;;;;;;;0.50;0.50;;;;;;;22.79;63.22;99411.59;5034261;28;20045;-64
2023/06/11 10:04:00;;;;;;;0.30;0.30;;;;;;;22.85;62.73;99413.84;5034067;28;20052;-64
2023/06/11 10:06:33;;;;;;;0.55;0.55;;;;;;;22.87;62.20;99419.81;5034949;28;20466;-64
2023/06/11 10:09:06;;;;;;;0.70;0.70;;;;;;;22.97;61.75;99415.78;5034267;28;20458;-63
2023/06/11 10:11:38;;;;;;;0.57;0.57;;;;;;;23.07;61.28;99416.94;5034020;28;20049;-65
2023/06/11 10:14:13;;;;;;;0.50;0.50;;;;;;;23.29;60.48;99412.22;5034279;28;20488;-64
2023/06/11 10:16:48;;;;;;;1.30;0.70;;;;;;;23.48;60.51;99415.47;5033841;28;20091;-64
2023/06/11 10:19:19;;;;;;;0.45;0.45;;;;;;;23.72;60.51;99408.84;5034198;28;20103;-64
2023/06/11 10:21:51;;;;;;;0.40;0.40;;;;;;;23.77;59.94;99408.56;5033985;28;20521;-65
2023/06/11 10:24:23;;;;;;;0.40;0.40;;;;;;;23.70;59.70;99408.09;5033826;28;20060;-64
2023/06/11 10:27:11;;;;;;;0.63;0.63;;;;;;;23.75;59.61;99403.47;5034074;28;20050;-65
2023/06/11 10:29:42;;;;;;;0.57;0.57;;;;;;;23.75;58.58;99410.44;5034296;28;20053;-64
2023/06/11 10:32:17;;;;;;;0.63;0.63;;;;;;;23.95;58.39;99408.31;5034011;28;20052;-64
2023/06/11 10:34:50;;;;;;;0.75;0.65;;;;;;;24.15;58.34;99414.13;5033488;28;20122;-65
2023/06/11 10:37:28;;;;;;;0.40;0.40;;;;;;;24.13;57.86;99402.97;5033719;28;20076;-65
2023/06/11 10:39:57;;;;;;;0.50;0.50;;;;;;;24.11;57.39;99400.47;5033590;28;20041;-64
2023/06/11 10:42:28;;;;;;;0.77;0.68;;;;;;;24.23;57.38;99406.69;5033878;28;20120;-64
2023/06/11 10:44:58;;;;;;;0.40;0.40;;;;;;;24.40;57.23;99399.50;5033895;28;20045;-64
2023/06/11 10:47:28;;;;;;;0.57;0.57;;;;;;;24.62;56.76;99404.22;5033444;28;20100;-65
2023/06/11 10:50:12;;;;;;;0.50;0.50;;;;;;;24.80;56.75;99408.34;5033820;28;20056;-65
2023/06/11 10:52:49;;;;;;;0.47;0.47;;;;;;;24.89;56.50;99402.53;5033802;28;20115;-64
2023/06/11 10:55:21;;;;;;;0.60;0.60;;;;;;;24.91;55.82;99411.09;5037633;28;20042;-64
2023/06/11 10:57:52;;;;;;;0.40;0.40;;;;;;;24.97;55.72;99409.88;5036745;28;20048;-64
2023/06/11 11:00:21;;;;;;;1.10;0.73;;;;;;;25.00;55.72;99410.50;5037495;28;20072;-64
2023/06/11 11:02:51;;;;;;;0.52;0.52;;;;;;;24.94;55.35;99416.13;5037787;28;20052;-65
2023/06/11 11:05:22;;;;;;;0.38;0.38;;;;;;;24.94;55.27;99407.47;5037685;28;20159;-65
2023/06/11 11:07:53;;;;;;;0.60;0.52;;;;;;;24.89;55.01;99407.75;5037442;28;20076;-65
2023/06/11 11:10:25;;;;;;;0.77;0.70;;;;;;;24.90;54.88;99399.00;5036336;28;20053;-64
2023/06/11 11:12:55;;;;;;;0.70;0.70;;;;;;;25.05;54.64;99402.41;5037394;28;20095;-65
2023/06/11 11:15:24;;;;;;;0.60;0.60;;;;;;;25.13;55.31;99398.34;5037460;28;20042;-64
2023/06/11 11:17:53;;;;;;;0.63;0.63;;;;;;;25.36;54.91;99399.47;5037146;28;20045;-65
2023/06/11 11:20:23;;;;;;;0.50;0.50;;;;;;;25.34;53.71;99403.13;5037441;28;20046;-64
2023/06/11 11:22:56;;;;;;;0.80;0.70;;;;;;;25.34;54.04;99393.47;5037414;28;20091;-64
2023/06/11 11:25:29;;;;;;;1.27;0.88;;;;;;;25.48;54.34;99395.25;5037074;28;20049;-64
2023/06/11 11:27:59;;;;;;;0.40;0.40;;;;;;;25.62;54.35;99382.09;5036957;28;20050;-65
2023/06/11 11:30:29;;;;;;;0.68;0.68;;;;;;;25.73;53.54;99380.41;5037384;28;20392;-65
2023/06/11 11:32:59;;;;;;;0.43;0.43;;;;;;;25.80;53.10;99378.22;5037499;28;20041;-65
2023/06/11 11:35:30;;;;;;;1.40;0.93;;;;;;;26.05;53.44;99380.00;5037142;28;20376;-65
2023/06/11 11:37:59;;;;;;;0.80;0.80;;;;;;;26.29;53.31;99373.97;5037192;28;20049;-65
2023/06/11 11:40:29;;;;;;;0.60;0.60;;;;;;;26.47;52.58;99374.41;5035678;28;20072;-65
2023/06/11 11:42:59;;;;;;;0.40;0.40;;;;;;;26.63;52.00;99367.19;5037118;28;20115;-65
2023/06/11 11:45:32;;;;;;;0.40;0.40;;;;;;;26.36;51.82;99364.72;5035740;28;20048;-64
2023/06/11 11:48:02;;;;;;;0.40;0.40;;;;;;;25.99;51.64;99338.59;5037013;28;20041;-64
2023/06/11 11:50:34;;;;;;;0.68;0.68;;;;;;;26.10;52.09;99362.22;5036577;28;20048;-65